createdAt,value
2019-04-22T00:03:06.473Z,1003.2
2019-04-22T00:08:29.357Z,1003.2
2019-04-22T00:13:31.787Z,1003.3
2019-04-22T00:18:42.514Z,1003.3
2019-04-22T00:23:23.066Z,1003.3
2019-04-22T00:28:30.166Z,1003.3
2019-04-22T00:33:26.211Z,1003.4
2019-04-22T00:38:51.260Z,1003.5
2019-04-22T00:43:24.065Z,1003.5
2019-04-22T00:48:26.947Z,1003.5
2019-04-22T00:58:23.888Z,1003.5
2019-04-22T01:03:33.981Z,1003.6
2019-04-22T01:13:24.570Z,1003.6
2019-04-22T01:18:27.749Z,1003.6
2019-04-22T01:23:23.360Z,1003.7
2019-04-22T01:28:17.797Z,1003.6
2019-04-22T01:33:09.010Z,1003.6
2019-04-22T01:38:18.779Z,1003.6
2019-04-22T01:44:14.145Z,1003.6
2019-04-22T01:48:59.286Z,1003.6
2019-04-22T01:54:21.951Z,1003.6
2019-04-22T01:58:23.179Z,1003.7
2019-04-22T02:03:17.038Z,1003.7
2019-04-22T02:08:37.717Z,1003.8
2019-04-22T02:13:28.619Z,1003.8
2019-04-22T02:18:31.415Z,1003.8
2019-04-22T04:08:58.701Z,1004.8
2019-04-22T04:14:00.315Z,1004.8
2019-04-22T04:25:05.130Z,1004.9
2019-04-22T04:56:46.382Z,1005.2
2019-04-22T05:06:59.147Z,1005.2
2019-04-22T05:26:48.240Z,1005.5
2019-04-22T05:31:51.257Z,1005.6
2019-04-22T05:36:46.577Z,1005.6
2019-04-22T05:41:47.946Z,1005.7
2019-04-22T05:46:47.350Z,1005.6
2019-04-22T05:51:41.555Z,1005.7
2019-04-22T05:56:39.179Z,1005.7
2019-04-22T06:01:50.128Z,1005.8
2019-04-22T06:06:39.776Z,1005.8
2019-04-22T06:11:35.811Z,1005.8
2019-04-22T06:16:43.883Z,1005.8
2019-04-22T06:21:41.625Z,1005.9
2019-04-22T06:26:50.717Z,1005.9
2019-04-22T06:49:02.591Z,1006.1
2019-04-22T06:54:07.105Z,1006.2
2019-04-22T06:58:57.509Z,1006.2
2019-04-22T07:03:56.753Z,1006.2
2019-04-22T07:14:00.832Z,1006.3
2019-04-22T07:19:00.684Z,1006.4
2019-04-22T07:24:06.665Z,1006.3
2019-04-22T07:28:54.748Z,1006.3
2019-04-22T07:33:57.850Z,1006.3
2019-04-22T07:44:12.934Z,1006.4
2019-04-22T07:48:57.279Z,1006.4
2019-04-22T07:54:00.930Z,1006.5
2019-04-22T07:59:03.070Z,1006.5
2019-04-22T08:04:06.784Z,1006.5
2019-04-22T08:08:59.684Z,1006.5
2019-04-22T08:13:58.384Z,1006.6
2019-04-22T08:19:02.817Z,1006.5
2019-04-22T08:24:01.037Z,1006.5
2019-04-22T08:29:05.471Z,1006.5
2019-04-22T08:34:01.484Z,1006.5
2019-04-22T08:39:07.612Z,1006.5
2019-04-22T08:44:00.551Z,1006.4
2019-04-22T08:48:58.866Z,1006.4
2019-04-22T08:59:07.794Z,1006.4
2019-04-22T09:04:01.718Z,1006.5
2019-04-22T09:09:00.676Z,1006.5
2019-04-22T09:14:01.432Z,1006.5
2019-04-22T09:18:59.090Z,1006.6
2019-04-22T09:24:03.762Z,1006.4
2019-04-22T09:29:04.808Z,1006.8
2019-04-22T09:33:58.853Z,1006.7
2019-04-22T09:39:00.468Z,1006.7
2019-04-22T09:49:06.118Z,1006.5
2019-04-22T09:54:05.385Z,1006.9
2019-04-22T09:59:12.845Z,1006.8
2019-04-22T10:04:00.442Z,1006.8
2019-04-22T10:19:03.968Z,1006.4
2019-04-22T10:24:02.966Z,1006.4
2019-04-22T10:29:05.487Z,1006.3
2019-04-22T10:33:49.076Z,1006.3
2019-04-22T10:38:36.693Z,1006.6
2019-04-22T10:43:36.959Z,1006.5
2019-04-22T10:48:36.555Z,1006.7
2019-04-22T10:53:35.694Z,1006.6
2019-04-22T10:58:35.689Z,1006.2
2019-04-22T11:03:37.192Z,1006.7
2019-04-22T11:08:43.199Z,1006.4
2019-04-22T11:13:35.944Z,1006.6
2019-04-22T11:18:35.797Z,1006.5
2019-04-22T11:23:36.429Z,1006.5
2019-04-22T11:28:35.912Z,1006.4
2019-04-22T11:33:36.370Z,1006.4
2019-04-22T11:38:37.588Z,1006.4
2019-04-22T11:43:36.174Z,1006
2019-04-22T11:48:35.964Z,1006
2019-04-22T11:53:40.911Z,1005.9
2019-04-22T11:58:37.010Z,1005.8
2019-04-22T12:03:35.843Z,1005.8
2019-04-22T12:08:35.700Z,1005.7
2019-04-22T12:13:35.861Z,1005.7
2019-04-22T12:18:37.286Z,1005.8
2019-04-22T12:23:37.046Z,1006
2019-04-22T12:26:19.447Z,1005.9
2019-04-22T12:31:21.940Z,1005.9
2019-04-22T12:36:22.553Z,1005.6
2019-04-22T12:41:21.815Z,1005.7
2019-04-22T12:51:27.495Z,1005.8
2019-04-22T12:56:27.803Z,1005.6
2019-04-22T13:01:28.779Z,1005.7
2019-04-22T13:06:27.877Z,1005.5
2019-04-22T13:11:34.725Z,1005.5
2019-04-22T13:16:29.166Z,1005.5
2019-04-22T13:21:28.786Z,1005.5
2019-04-22T13:26:27.428Z,1005.6
2019-04-22T13:31:28.661Z,1005.5
2019-04-22T13:36:29.370Z,1005.4
2019-04-22T13:41:33.763Z,1005.5
2019-04-22T13:46:31.240Z,1005.4
2019-04-22T13:53:44.594Z,1005.5
2019-04-22T14:01:28.297Z,1005.4
2019-04-22T14:06:28.915Z,1005.3
2019-04-22T14:11:36.487Z,1005.3
2019-04-22T14:16:28.864Z,1005.4
2019-04-22T14:21:27.401Z,1005.3
2019-04-22T14:26:35.246Z,1005.2
2019-04-22T14:31:28.536Z,1005.2
2019-04-22T14:36:27.583Z,1005.3
2019-04-22T14:41:40.156Z,1005.2
2019-04-22T14:46:56.312Z,1005.3
2019-04-22T14:51:49.389Z,1005.2
2019-04-22T14:56:28.601Z,1005.3
2019-04-22T15:01:28.756Z,1005.3
2019-04-22T15:06:28.457Z,1005.3
2019-04-22T15:11:28.953Z,1005.4
2019-04-22T15:16:28.063Z,1005.2
2019-04-22T15:21:28.892Z,1005.2
2019-04-22T15:26:28.542Z,1005.3
2019-04-22T15:31:29.113Z,1005.3
2019-04-22T15:36:28.348Z,1005.4
2019-04-22T15:41:28.527Z,1005.3
2019-04-22T15:46:28.052Z,1005.2
2019-04-22T15:51:28.833Z,1005.2
2019-04-22T15:56:28.442Z,1005.2
2019-04-22T16:01:33.317Z,1005.2
2019-04-22T16:06:28.152Z,1005.2
2019-04-22T16:11:28.038Z,1005.2
2019-04-22T16:16:28.420Z,1005.2
2019-04-22T16:21:37.517Z,1005.3
2019-04-22T16:26:28.390Z,1005.4
2019-04-22T16:31:29.452Z,1005.5
2019-04-22T16:36:29.004Z,1005.5
2019-04-22T16:41:28.674Z,1005.5
2019-04-22T16:46:28.063Z,1005.5
2019-04-22T16:51:28.014Z,1005.5
2019-04-22T16:56:29.637Z,1005.5
2019-04-22T17:01:28.464Z,1005.5
2019-04-22T17:06:28.017Z,1005.6
2019-04-22T17:11:28.004Z,1005.6
2019-04-22T17:16:28.426Z,1005.6
2019-04-22T17:21:28.008Z,1005.7
2019-04-22T17:26:28.476Z,1005.8
2019-04-22T17:31:28.950Z,1005.8
2019-04-22T17:36:29.788Z,1005.8
2019-04-22T17:41:49.890Z,1005.8
2019-04-22T17:46:40.042Z,1005.9
2019-04-22T17:51:53.311Z,1005.9
2019-04-22T17:56:48.404Z,1005.9
2019-04-22T18:01:43.180Z,1005.9
2019-04-22T18:06:54.135Z,1005.9
2019-04-22T18:11:50.565Z,1006
2019-04-22T18:16:45.387Z,1005.9
2019-04-22T18:21:44.263Z,1006
2019-04-22T18:26:47.390Z,1006
2019-04-22T18:31:39.079Z,1006
2019-04-22T18:36:40.230Z,1006
2019-04-22T18:41:47.893Z,1006
2019-04-22T18:51:51.117Z,1006
2019-04-22T18:56:46.387Z,1006
2019-04-22T19:01:29.985Z,1006.1
2019-04-22T19:06:50.044Z,1006
2019-04-22T19:12:01.356Z,1006.1
2019-04-22T19:16:51.654Z,1006.1
2019-04-22T19:21:51.023Z,1006.1
2019-04-22T19:26:54.934Z,1006.1
2019-04-22T19:31:51.075Z,1006.1
2019-04-22T19:36:51.050Z,1006.1
2019-04-22T19:41:55.424Z,1006.1
2019-04-22T19:47:05.129Z,1006.2
2019-04-22T19:51:57.135Z,1006.2
2019-04-22T19:56:39.951Z,1006.2
2019-04-22T20:01:46.950Z,1006.2
2019-04-22T20:06:47.039Z,1006.3
2019-04-22T20:11:49.259Z,1006.3
2019-04-22T20:16:43.653Z,1006.3
2019-04-22T20:21:51.054Z,1006.4
2019-04-22T20:27:08.775Z,1006.4
2019-04-22T20:31:52.915Z,1006.4
2019-04-22T20:41:40.861Z,1006.4
2019-04-22T20:46:48.660Z,1006.4
2019-04-22T20:51:58.619Z,1006.4
2019-04-22T20:56:48.907Z,1006.5
2019-04-22T21:01:48.739Z,1006.4
2019-04-22T21:06:47.105Z,1006.5
2019-04-22T21:11:44.914Z,1006.5
2019-04-22T21:16:51.284Z,1006.5
2019-04-22T21:21:49.601Z,1006.6
2019-04-22T21:26:46.859Z,1006.7
2019-04-22T21:31:51.011Z,1006.6
2019-04-22T21:37:42.809Z,1006.6
2019-04-22T21:41:45.829Z,1006.6
2019-04-22T21:46:56.838Z,1006.6
2019-04-22T21:51:53.196Z,1006.6
2019-04-22T21:57:01.358Z,1006.6
2019-04-22T22:01:52.060Z,1006.6
2019-04-22T22:06:40.887Z,1006.6
2019-04-22T22:11:48.934Z,1006.6
2019-04-22T22:16:42.500Z,1006.6
2019-04-22T22:26:50.061Z,1006.6
2019-04-22T22:31:52.730Z,1006.6
2019-04-22T22:36:40.139Z,1006.6
2019-04-22T22:41:29.954Z,1006.6
2019-04-22T22:46:37.245Z,1006.6
2019-04-22T22:51:52.978Z,1006.6
2019-04-22T22:57:06.663Z,1006.6
2019-04-22T23:01:50.462Z,1006.7
2019-04-22T23:07:10.776Z,1006.7
2019-04-22T23:12:03.103Z,1006.7
2019-04-22T23:16:39.258Z,1006.7
2019-04-22T23:21:38.759Z,1006.7
2019-04-22T23:26:45.227Z,1006.6
2019-04-22T23:31:38.537Z,1006.7
2019-04-22T23:36:34.102Z,1006.7
2019-04-22T23:41:50.191Z,1006.6
2019-04-22T23:46:40.965Z,1006.6
2019-04-22T23:51:55.005Z,1006.6
2019-04-22T23:56:43.073Z,1006.6
